Time;durP1;ratioP1;P1;durP2;ratioP2;P2;SDS_P1;SDS_P2;PMS_P1;PMS_P2;Temp;Humidity;BMP_temperature;BMP_pressure;BME280_temperature;BME280_humidity;BME280_pressure;Samples;Min_cycle;Max_cycle;Signal;HPM_P1;HPM_P2
2021/08/13 00:02:46;;;;;;;25.05;11.02;;;28.50;61.90;;;;;;4971933;28;20390;-65
2021/08/13 00:05:50;;;;;;;24.48;10.23;;;28.50;61.50;;;;;;4971811;28;20050;-65
2021/08/13 00:08:54;;;;;;;21.48;10.52;;;28.50;61.60;;;;;;4974931;28;20525;-65
2021/08/13 00:11:58;;;;;;;20.35;9.68;;;28.50;61.50;;;;;;4974836;28;20500;-64
2021/08/13 00:15:03;;;;;;;26.95;10.32;;;28.30;61.20;;;;;;4962843;28;20042;-65
2021/08/13 00:18:08;;;;;;;23.27;9.63;;;28.30;61.70;;;;;;4974922;28;20042;-65
2021/08/13 00:21:12;;;;;;;21.88;9.27;;;28.20;62.10;;;;;;4975086;28;20107;-65
2021/08/13 00:24:16;;;;;;;21.70;9.43;;;28.10;62.10;;;;;;4974812;28;20115;-65
2021/08/13 00:27:20;;;;;;;17.08;9.57;;;28.00;61.90;;;;;;4975220;28;20526;-65
2021/08/13 00:30:24;;;;;;;27.50;10.07;;;28.00;62.20;;;;;;4974594;28;20057;-65
2021/08/13 00:33:29;;;;;;;28.58;9.57;;;28.00;62.60;;;;;;4962649;28;20042;-65
2021/08/13 00:36:33;;;;;;;20.02;9.38;;;28.00;63.00;;;;;;4962583;28;20046;-65
2021/08/13 00:39:39;;;;;;;25.55;10.30;;;28.00;63.20;;;;;;4962549;28;20050;-65
2021/08/13 00:42:44;;;;;;;26.90;9.88;;;28.00;62.90;;;;;;4951897;28;20041;-65
2021/08/13 00:45:50;;;;;;;23.23;10.70;;;27.90;63.10;;;;;;4962481;28;20058;-65
2021/08/13 00:48:56;;;;;;;20.92;10.20;;;27.90;63.40;;;;;;4951722;28;20050;-65
2021/08/13 00:52:18;;;;;;;23.35;10.65;;;28.00;63.50;;;;;;4962241;28;20054;-64
2021/08/13 00:55:24;;;;;;;24.25;10.68;;;28.10;63.10;;;;;;4962634;28;20053;-65
2021/08/13 00:58:35;;;;;;;25.40;10.45;;;28.10;63.50;;;;;;4962225;28;20054;-64
2021/08/13 01:02:06;;;;;;;27.67;10.60;;;28.10;63.90;;;;;;4961123;28;20054;-65
2021/08/13 01:05:10;;;;;;;25.85;10.88;;;28.10;64.10;;;;;;4974362;28;20042;-65
2021/08/13 01:08:15;;;;;;;25.60;11.18;;;28.10;64.30;;;;;;4962018;28;20050;-65
2021/08/13 01:11:47;;;;;;;30.77;10.88;;;28.00;64.60;;;;;;4961829;28;20066;-65
2021/08/13 01:15:11;;;;;;;27.92;10.95;;;27.90;64.60;;;;;;4961891;28;20537;-65
2021/08/13 01:18:33;;;;;;;31.95;11.23;;;27.80;64.80;;;;;;4960846;28;20042;-65
2021/08/13 01:21:50;;;;;;;20.73;9.95;;;27.70;65.30;;;;;;4961777;28;20191;-65
2021/08/13 01:25:03;;;;;;;25.13;10.75;;;27.70;66.00;;;;;;4973448;28;20057;-65
2021/08/13 01:28:41;;;;;;;33.90;12.15;;;27.70;65.30;;;;;;4961749;28;20505;-65
2021/08/13 01:32:11;;;;;;;26.95;12.13;;;27.70;65.10;;;;;;4961481;28;20057;-64
2021/08/13 01:35:30;;;;;;;24.95;11.93;;;27.70;64.50;;;;;;4954174;28;20050;-65
2021/08/13 01:38:37;;;;;;;26.92;11.68;;;27.70;64.90;;;;;;4961558;28;20050;-64
2021/08/13 01:41:42;;;;;;;18.40;11.13;;;27.70;65.10;;;;;;4961703;28;20054;-64
2021/08/13 01:44:49;;;;;;;25.38;11.68;;;27.60;65.20;;;;;;4961209;28;20050;-64
2021/08/13 01:47:55;;;;;;;22.67;12.77;;;27.60;65.20;;;;;;4961483;28;20150;-64
2021/08/13 01:51:03;;;;;;;26.13;11.65;;;27.50;65.40;;;;;;4973043;28;20058;-64
2021/08/13 01:54:11;;;;;;;34.35;10.95;;;27.50;65.40;;;;;;4961907;28;20046;-64
2021/08/13 01:57:22;;;;;;;31.85;11.95;;;27.50;66.30;;;;;;4961401;28;20053;-65
2021/08/13 02:00:26;;;;;;;20.17;11.43;;;27.50;66.10;;;;;;4961473;28;20045;-65
2021/08/13 02:03:33;;;;;;;35.47;12.32;;;27.40;66.70;;;;;;4961514;28;20046;-65
2021/08/13 02:06:38;;;;;;;27.13;11.77;;;27.30;66.60;;;;;;4961069;28;20050;-65
2021/08/13 02:09:51;;;;;;;26.38;12.27;;;27.20;66.30;;;;;;4961117;28;20037;-65
2021/08/13 02:12:59;;;;;;;23.75;12.15;;;27.20;66.60;;;;;;4961797;28;20056;-65
2021/08/13 02:16:09;;;;;;;34.92;12.15;;;27.10;66.70;;;;;;4960820;28;20537;-65
2021/08/13 02:19:47;;;;;;;28.00;11.85;;;27.10;67.60;;;;;;4973103;28;20046;-65
2021/08/13 02:22:51;;;;;;;38.03;12.35;;;27.10;67.90;;;;;;4971757;28;20053;-65
2021/08/13 02:25:55;;;;;;;35.13;11.93;;;27.00;68.30;;;;;;4960631;28;20399;-65
2021/08/13 02:29:01;;;;;;;24.75;12.18;;;26.90;68.60;;;;;;4960629;28;20059;-65
2021/08/13 02:32:07;;;;;;;31.85;12.05;;;26.90;68.90;;;;;;4960392;28;20065;-65
2021/08/13 02:35:11;;;;;;;27.60;10.93;;;26.90;69.20;;;;;;4960830;28;20054;-65
2021/08/13 02:38:44;;;;;;;25.35;12.10;;;27.00;69.70;;;;;;4960611;28;20046;-65
2021/08/13 02:41:50;;;;;;;32.05;11.18;;;27.00;69.00;;;;;;4960832;28;20045;-65
2021/08/13 02:44:58;;;;;;;33.60;11.00;;;27.00;68.90;;;;;;4960548;28;20046;-65
2021/08/13 02:48:06;;;;;;;23.50;11.57;;;26.90;69.40;;;;;;4960741;28;20048;-65
2021/08/13 02:51:19;;;;;;;23.25;11.05;;;26.90;69.10;;;;;;4960272;28;20053;-65
2021/08/13 02:54:27;;;;;;;22.90;11.35;;;26.90;69.20;;;;;;4949542;28;20046;-65
2021/08/13 02:57:34;;;;;;;25.15;11.68;;;26.80;69.40;;;;;;4960239;28;20047;-65
2021/08/13 03:00:40;;;;;;;21.08;12.00;;;26.80;69.80;;;;;;4972448;28;20041;-64
2021/08/13 03:03:46;;;;;;;24.48;12.95;;;26.60;69.90;;;;;;4960109;28;20041;-64
2021/08/13 03:06:51;;;;;;;26.05;11.18;;;26.60;70.30;;;;;;4960229;28;20046;-64
2021/08/13 03:09:57;;;;;;;33.22;11.57;;;26.60;70.00;;;;;;4960579;28;20058;-64
2021/08/13 03:13:02;;;;;;;20.42;11.15;;;26.60;70.20;;;;;;4960599;28;20050;-64
2021/08/13 03:16:08;;;;;;;26.98;12.48;;;26.60;70.60;;;;;;4960140;28;20054;-65
2021/08/13 03:19:20;;;;;;;33.63;12.27;;;26.60;70.70;;;;;;4960061;28;20042;-65
2021/08/13 03:22:25;;;;;;;33.97;11.88;;;26.50;71.00;;;;;;4959864;28;20046;-65
2021/08/13 03:25:29;;;;;;;23.67;12.43;;;26.40;71.10;;;;;;4959945;28;20058;-65
2021/08/13 03:28:34;;;;;;;30.88;11.85;;;26.30;71.30;;;;;;4960030;28;20062;-65
2021/08/13 03:31:43;;;;;;;28.48;11.82;;;26.20;71.50;;;;;;4959910;28;20505;-65
2021/08/13 03:34:48;;;;;;;27.95;11.38;;;26.20;71.70;;;;;;4959629;28;20050;-65
2021/08/13 03:37:52;;;;;;;34.63;11.73;;;26.30;71.70;;;;;;4960003;28;20046;-65
2021/08/13 03:40:57;;;;;;;30.52;12.73;;;26.40;71.30;;;;;;4960443;28;20062;-65
2021/08/13 03:44:02;;;;;;;27.40;11.70;;;26.30;71.10;;;;;;4963559;28;20510;-65
2021/08/13 03:47:06;;;;;;;29.23;12.55;;;26.30;71.60;;;;;;4963591;28;20053;-65
2021/08/13 03:50:12;;;;;;;29.48;12.75;;;26.20;71.90;;;;;;4963306;28;20049;-65
2021/08/13 03:53:16;;;;;;;26.10;12.13;;;26.20;72.50;;;;;;4963460;28;20521;-65
2021/08/13 03:56:21;;;;;;;22.00;12.98;;;26.20;72.20;;;;;;4963407;28;20050;-65
2021/08/13 03:59:26;;;;;;;23.55;13.75;;;26.10;72.50;;;;;;4963580;28;20049;-65
2021/08/13 04:02:31;;;;;;;27.15;12.50;;;26.10;72.60;;;;;;4963348;28;20054;-65
2021/08/13 04:05:35;;;;;;;30.45;13.95;;;26.00;72.80;;;;;;4963094;28;20062;-65
2021/08/13 04:08:39;;;;;;;29.77;14.82;;;25.90;73.00;;;;;;4975034;28;20046;-65
2021/08/13 04:11:44;;;;;;;31.15;14.00;;;25.90;73.20;;;;;;4963097;28;20058;-65
2021/08/13 04:14:48;;;;;;;29.23;13.77;;;26.00;73.00;;;;;;4975251;28;20394;-65
2021/08/13 04:17:53;;;;;;;29.02;13.52;;;26.00;72.80;;;;;;4963073;28;20407;-64
2021/08/13 04:21:01;;;;;;;30.95;13.85;;;26.00;72.70;;;;;;4963061;28;20058;-65
2021/08/13 04:24:07;;;;;;;30.55;14.02;;;26.10;72.40;;;;;;4962658;28;20058;-65
2021/08/13 04:27:11;;;;;;;34.97;14.70;;;26.00;72.70;;;;;;4974849;28;20057;-64
2021/08/13 04:30:15;;;;;;;26.90;12.85;;;25.90;72.60;;;;;;4974798;28;20046;-64
2021/08/13 04:33:21;;;;;;;27.63;13.63;;;25.90;72.90;;;;;;4962747;28;20042;-64
2021/08/13 04:36:35;;;;;;;40.42;13.80;;;25.70;73.20;;;;;;4962622;28;20045;-65
2021/08/13 04:39:40;;;;;;;34.90;14.15;;;25.80;73.20;;;;;;4962642;28;20038;-65
2021/08/13 04:42:45;;;;;;;37.13;15.60;;;25.90;72.90;;;;;;4962388;28;20041;-65
2021/08/13 04:45:49;;;;;;;27.38;14.52;;;25.90;73.00;;;;;;4962402;28;20050;-65
2021/08/13 04:48:54;;;;;;;42.97;14.38;;;26.10;72.30;;;;;;4962840;28;20443;-65
2021/08/13 04:52:00;;;;;;;43.45;14.15;;;26.30;71.60;;;;;;4962036;28;20062;-65
2021/08/13 04:55:06;;;;;;;47.00;13.93;;;26.30;71.20;;;;;;4962768;28;20050;-65
2021/08/13 04:58:10;;;;;;;52.92;14.27;;;26.30;70.70;;;;;;4962318;28;20046;-65
2021/08/13 05:01:15;;;;;;;58.83;14.38;;;26.40;70.40;;;;;;4962318;28;20042;-65
2021/08/13 05:04:19;;;;;;;66.20;14.55;;;26.50;70.00;;;;;;4962105;28;20494;-65
2021/08/13 05:07:24;;;;;;;69.03;14.60;;;26.50;69.80;;;;;;4962209;28;20046;-65
2021/08/13 05:10:29;;;;;;;58.10;14.25;;;26.60;69.30;;;;;;4974024;28;20102;-65
2021/08/13 05:13:33;;;;;;;30.42;12.57;;;27.00;69.10;;;;;;4961941;28;20054;-65
2021/08/13 05:16:37;;;;;;;33.50;12.90;;;27.60;67.30;;;;;;4961779;28;20037;-65
2021/08/13 05:19:42;;;;;;;35.25;12.05;;;28.10;65.90;;;;;;4961748;28;20046;-65
2021/08/13 05:22:46;;;;;;;23.95;12.18;;;28.90;64.40;;;;;;4973687;28;20061;-65
2021/08/13 05:25:50;;;;;;;34.67;12.88;;;29.20;63.20;;;;;;4961801;28;20065;-65
2021/08/13 05:28:55;;;;;;;32.90;12.32;;;29.90;61.00;;;;;;4961923;28;20045;-65
2021/08/13 05:32:00;;;;;;;33.58;13.32;;;30.40;59.80;;;;;;4961641;28;20506;-65
2021/08/13 05:35:06;;;;;;;36.50;13.20;;;30.50;59.50;;;;;;4961718;28;20054;-65
2021/08/13 05:38:10;;;;;;;52.45;13.90;;;30.50;59.80;;;;;;4961343;28;20058;-65
2021/08/13 05:41:15;;;;;;;34.05;13.60;;;30.30;60.20;;;;;;4961604;28;20050;-65
2021/08/13 05:44:22;;;;;;;31.13;13.63;;;30.20;60.30;;;;;;4961393;28;20400;-65
2021/08/13 05:47:26;;;;;;;48.53;14.07;;;30.00;60.50;;;;;;4961473;28;20057;-65
2021/08/13 05:50:31;;;;;;;31.27;13.80;;;30.00;60.60;;;;;;4972713;28;20069;-65
2021/08/13 05:53:35;;;;;;;34.53;14.32;;;30.10;60.10;;;;;;4960957;28;20525;-65
2021/08/13 05:56:39;;;;;;;44.58;14.35;;;30.00;60.70;;;;;;4961352;28;20042;-65
2021/08/13 05:59:44;;;;;;;48.47;14.13;;;29.80;60.50;;;;;;4961254;28;20042;-65
2021/08/13 06:02:52;;;;;;;58.30;15.15;;;29.90;61.00;;;;;;4960778;28;20502;-65
2021/08/13 06:05:57;;;;;;;40.72;16.10;;;30.00;60.40;;;;;;4960876;28;20054;-65
2021/08/13 06:09:03;;;;;;;53.15;16.45;;;30.10;60.50;;;;;;4939233;28;20045;-65
2021/08/13 06:12:07;;;;;;;48.42;17.30;;;30.40;59.80;;;;;;4972820;28;20066;-65
2021/08/13 06:15:12;;;;;;;51.45;17.00;;;30.50;60.00;;;;;;4960820;28;20041;-65
2021/08/13 06:18:17;;;;;;;50.53;18.98;;;30.50;60.20;;;;;;4960220;28;20065;-65
2021/08/13 06:21:22;;;;;;;48.22;18.25;;;30.60;59.30;;;;;;4960784;28;20513;-66
2021/08/13 06:24:27;;;;;;;58.58;17.92;;;30.90;59.40;;;;;;4960613;28;20411;-66
2021/08/13 06:27:32;;;;;;;56.65;17.77;;;32.20;57.20;;;;;;4960778;28;20057;-66
2021/08/13 06:30:36;;;;;;;60.55;18.92;;;33.10;55.00;;;;;;4960281;28;20198;-66
2021/08/13 06:33:41;;;;;;;48.30;17.33;;;33.80;53.10;;;;;;4972370;28;20062;-65
2021/08/13 06:36:46;;;;;;;28.33;14.32;;;34.30;51.60;;;;;;4960485;28;20089;-66
2021/08/13 06:39:50;;;;;;;33.03;15.15;;;34.70;51.00;;;;;;4960390;28;20050;-66
2021/08/13 06:42:55;;;;;;;38.08;15.45;;;35.00;49.70;;;;;;4972204;28;20418;-66
2021/08/13 06:46:04;;;;;;;46.60;15.70;;;35.20;49.60;;;;;;4960238;28;20058;-65
2021/08/13 06:49:11;;;;;;;35.20;15.52;;;35.50;49.00;;;;;;4960193;28;20041;-66
2021/08/13 06:52:15;;;;;;;27.77;14.07;;;35.70;48.90;;;;;;4960044;28;20058;-67
2021/08/13 06:55:20;;;;;;;25.65;13.18;;;36.10;47.30;;;;;;4960048;28;20053;-65
2021/08/13 06:58:30;;;;;;;27.55;12.98;;;36.20;46.40;;;;;;4960068;28;20510;-66
2021/08/13 07:01:34;;;;;;;30.40;13.07;;;36.20;46.40;;;;;;4971667;28;20057;-65
2021/08/13 07:04:39;;;;;;;39.15;13.50;;;36.30;46.60;;;;;;4960376;28;20050;-66
2021/08/13 07:07:44;;;;;;;29.00;13.05;;;36.60;46.70;;;;;;4971468;28;20061;-66
2021/08/13 07:10:48;;;;;;;30.48;13.30;;;36.90;46.50;;;;;;4959662;28;20045;-65
2021/08/13 07:14:09;;;;;;;44.83;13.63;;;37.30;46.00;;;;;;4962505;28;20127;-65
2021/08/13 07:17:17;;;;;;;27.25;12.32;;;37.50;45.40;;;;;;4962838;28;20066;-65
2021/08/13 07:20:21;;;;;;;28.35;12.35;;;37.60;44.90;;;;;;4964049;28;20045;-65
2021/08/13 07:23:28;;;;;;;26.13;12.35;;;37.70;44.30;;;;;;4963912;28;20077;-66
2021/08/13 07:26:31;;;;;;;22.80;12.60;;;37.90;44.70;;;;;;4975912;28;20513;-67
2021/08/13 07:29:36;;;;;;;22.92;12.50;;;38.30;43.60;;;;;;4963789;28;20050;-66
2021/08/13 07:32:42;;;;;;;28.15;12.02;;;38.50;43.40;;;;;;4963378;28;20066;-66
2021/08/13 07:35:46;;;;;;;25.63;11.98;;;38.60;43.40;;;;;;4963491;28;20046;-66
2021/08/13 07:38:52;;;;;;;20.13;10.98;;;38.80;43.20;;;;;;4963439;28;20497;-66
2021/08/13 07:41:57;;;;;;;21.85;11.20;;;38.90;43.30;;;;;;4963559;28;20494;-66
2021/08/13 07:45:01;;;;;;;22.60;12.45;;;39.10;43.30;;;;;;4963578;28;20062;-68
2021/08/13 07:48:06;;;;;;;24.20;11.20;;;39.30;42.80;;;;;;4963506;28;20046;-68
2021/08/13 07:51:10;;;;;;;24.98;11.55;;;39.40;42.00;;;;;;4963223;28;20061;-67
2021/08/13 07:54:15;;;;;;;20.65;11.00;;;39.60;42.30;;;;;;4963394;28;20050;-68
2021/08/13 07:57:20;;;;;;;24.33;12.07;;;39.70;41.40;;;;;;4963431;28;20057;-68
2021/08/13 08:00:25;;;;;;;30.52;12.00;;;39.40;40.30;;;;;;4963205;28;20049;-66
2021/08/13 08:03:29;;;;;;;22.50;11.60;;;38.70;42.90;;;;;;4975375;28;20042;-66
2021/08/13 08:06:33;;;;;;;19.92;11.18;;;38.20;42.70;;;;;;4975037;28;20062;-67
2021/08/13 08:09:37;;;;;;;23.95;11.23;;;38.00;42.60;;;;;;4974824;28;20062;-67
2021/08/13 08:12:41;;;;;;;19.58;10.60;;;37.90;43.70;;;;;;4974780;28;20053;-67
2021/08/13 08:15:48;;;;;;;26.00;11.07;;;37.90;42.40;;;;;;4974819;28;20065;-67
2021/08/13 08:18:51;;;;;;;29.85;12.30;;;37.80;42.60;;;;;;4975291;28;20054;-68
2021/08/13 08:21:55;;;;;;;31.33;11.85;;;37.80;41.90;;;;;;4962920;28;20046;-68
2021/08/13 08:25:00;;;;;;;29.10;11.05;;;38.00;42.80;;;;;;4974788;28;20042;-68
2021/08/13 08:28:05;;;;;;;27.40;10.55;;;38.10;41.10;;;;;;4973591;28;20042;-68
2021/08/13 08:31:09;;;;;;;30.70;10.77;;;38.00;41.80;;;;;;4974426;28;20041;-68
2021/08/13 08:34:13;;;;;;;17.90;10.52;;;37.90;42.30;;;;;;4974359;28;20073;-68
2021/08/13 08:37:18;;;;;;;22.63;10.48;;;38.10;41.40;;;;;;4974123;28;20399;-68
2021/08/13 08:40:31;;;;;;;17.92;10.45;;;38.10;39.50;;;;;;4974498;28;20046;-68
2021/08/13 08:43:36;;;;;;;24.95;10.98;;;38.10;40.80;;;;;;4974130;28;20046;-67
2021/08/13 08:46:43;;;;;;;19.13;9.95;;;38.20;41.20;;;;;;4974399;28;20378;-68
2021/08/13 08:49:52;;;;;;;17.95;10.40;;;38.30;41.00;;;;;;4974057;28;20046;-68
2021/08/13 08:53:02;;;;;;;20.48;9.85;;;38.10;40.40;;;;;;4973970;28;20078;-68
2021/08/13 08:56:06;;;;;;;16.27;10.63;;;38.00;41.10;;;;;;4974172;28;20498;-68
2021/08/13 08:59:11;;;;;;;15.93;9.15;;;37.90;40.40;;;;;;4973972;28;20046;-68
2021/08/13 09:02:14;;;;;;;16.75;10.15;;;37.80;40.60;;;;;;4974038;28;20061;-68
2021/08/13 09:05:18;;;;;;;15.05;9.75;;;38.00;39.80;;;;;;4973975;28;20073;-68
2021/08/13 09:08:22;;;;;;;16.67;9.32;;;38.00;40.20;;;;;;4973777;28;20050;-68
2021/08/13 09:11:26;;;;;;;20.92;10.73;;;38.10;39.90;;;;;;4974202;28;20041;-68
2021/08/13 09:14:41;;;;;;;16.17;8.15;;;38.10;39.50;;;;;;4973821;28;20053;-67
2021/08/13 09:17:45;;;;;;;15.48;8.70;;;38.10;38.10;;;;;;4973735;28;20038;-68
2021/08/13 09:20:58;;;;;;;22.25;10.00;;;38.20;38.60;;;;;;4973774;28;20514;-68
2021/08/13 09:24:10;;;;;;;757.97;65.80;;;38.30;38.10;;;;;;4973512;28;20501;-67
2021/08/13 09:27:21;;;;;;;79.70;17.75;;;38.20;37.60;;;;;;4973824;28;20050;-67
2021/08/13 09:30:27;;;;;;;20.75;10.10;;;38.20;38.30;;;;;;4973816;28;20498;-67
2021/08/13 09:33:32;;;;;;;14.77;8.23;;;38.20;37.80;;;;;;4961352;28;20057;-67
2021/08/13 09:36:52;;;;;;;27.17;9.63;;;38.20;36.90;;;;;;4973775;28;20061;-66
2021/08/13 09:39:57;;;;;;;;;;;38.20;37.30;;;;;;4973041;28;20053;-66
2021/08/13 09:43:02;;;;;;;20.33;9.90;;;38.30;37.60;;;;;;4973990;28;20354;-67
2021/08/13 09:46:08;;;;;;;11.85;9.88;;;38.30;37.00;;;;;;4961365;28;20045;-67
2021/08/13 09:49:14;;;;;;;14.52;9.50;;;38.10;36.80;;;;;;4961137;28;20505;-66
2021/08/13 09:52:20;;;;;;;15.68;9.80;;;38.10;37.40;;;;;;4973141;28;20430;-67
2021/08/13 09:55:27;;;;;;;54.28;13.50;;;38.10;36.90;;;;;;4972885;28;20046;-66
2021/08/13 09:58:32;;;;;;;14.20;9.05;;;38.10;37.10;;;;;;4973024;28;20041;-67
2021/08/13 10:01:37;;;;;;;17.50;9.40;;;38.00;36.20;;;;;;4972709;28;20062;-68
2021/08/13 10:04:42;;;;;;;22.98;9.65;;;37.70;36.20;;;;;;4973347;28;20046;-67
2021/08/13 10:07:48;;;;;;;14.45;8.77;;;37.50;36.30;;;;;;4960782;28;20049;-67
2021/08/13 10:10:53;;;;;;;11.57;7.18;;;37.60;36.70;;;;;;4960925;28;20050;-67
2021/08/13 10:13:57;;;;;;;12.70;8.18;;;37.80;35.80;;;;;;4972799;28;20057;-66
2021/08/13 10:17:14;;;;;;;10.10;7.32;;;37.90;34.70;;;;;;4960546;28;20042;-67
2021/08/13 10:20:29;;;;;;;13.38;7.13;;;38.10;34.40;;;;;;4960759;28;20053;-67
2021/08/13 10:23:08;;;;;;;11.30;8.07;;;38.20;34.90;;;;;;5068189;28;20398;-68
2021/08/13 10:26:13;;;;;;;13.80;8.52;;;38.20;35.70;;;;;;5068226;28;20032;-68
2021/08/13 10:29:17;;;;;;;13.38;8.15;;;38.20;36.20;;;;;;5068166;28;20102;-68
2021/08/13 10:32:21;;;;;;;12.95;8.27;;;38.30;36.80;;;;;;5047272;28;20045;-68
2021/08/13 10:35:33;;;;;;;18.55;8.43;;;38.20;36.30;;;;;;5047177;28;20050;-67
2021/08/13 10:38:39;;;;;;;16.63;10.00;;;38.20;36.20;;;;;;5046970;28;20037;-67
2021/08/13 10:41:49;;;;;;;12.75;8.25;;;38.20;36.50;;;;;;5047300;28;20428;-68
2021/08/13 10:45:09;;;;;;;11.88;8.07;;;38.20;35.90;;;;;;5046939;28;20311;-65
2021/08/13 10:48:20;;;;;;;14.40;7.88;;;38.20;36.50;;;;;;5047321;28;20048;-67
2021/08/13 10:51:28;;;;;;;13.32;8.77;;;38.10;37.40;;;;;;5046890;28;20043;-67
2021/08/13 10:54:42;;;;;;;13.35;8.15;;;38.00;36.00;;;;;;5047287;28;20044;-68
2021/08/13 10:57:50;;;;;;;18.88;8.30;;;37.90;37.00;;;;;;5047226;28;20076;-68
2021/08/13 11:01:12;;;;;;;13.20;7.97;;;37.90;37.10;;;;;;5035836;28;20518;-67
2021/08/13 11:04:38;;;;;;;15.27;8.98;;;37.90;37.00;;;;;;5046778;28;20080;-67
2021/08/13 11:07:59;;;;;;;13.10;8.00;;;37.90;37.30;;;;;;5046932;28;20530;-68
2021/08/13 11:11:25;;;;;;;10.40;7.82;;;37.80;37.10;;;;;;5046419;28;20056;-67
2021/08/13 11:14:35;;;;;;;38.35;11.90;;;37.80;38.30;;;;;;5046362;28;20535;-68
2021/08/13 11:17:45;;;;;;;15.18;8.85;;;37.70;39.00;;;;;;5069751;28;20052;-68
2021/08/13 11:20:52;;;;;;;13.02;9.40;;;37.80;39.40;;;;;;5046529;28;20049;-68
2021/08/13 11:24:01;;;;;;;13.55;10.35;;;37.80;38.60;;;;;;5046316;28;20052;-68
2021/08/13 11:27:27;;;;;;;;;;;37.70;37.80;;;;;;5047247;28;20063;-68
2021/08/13 11:30:42;;;;;;;12.90;8.65;;;37.70;38.10;;;;;;5046597;28;19916;-67
2021/08/13 11:33:47;;;;;;;15.05;8.57;;;37.70;39.30;;;;;;5036727;28;20053;-68
2021/08/13 11:36:53;;;;;;;12.60;8.85;;;37.70;38.50;;;;;;5032992;28;20105;-67
2021/08/13 11:40:06;;;;;;;13.05;9.85;;;37.70;38.80;;;;;;5033017;28;20847;-67
2021/08/13 11:43:12;;;;;;;14.23;9.88;;;37.70;38.40;;;;;;5032679;28;20049;-68
2021/08/13 11:46:27;;;;;;;17.27;10.10;;;37.70;38.30;;;;;;5033010;28;20201;-68
2021/08/13 11:49:35;;;;;;;17.20;10.68;;;37.70;38.70;;;;;;5021885;28;20052;-66
2021/08/13 11:52:48;;;;;;;16.35;9.63;;;37.70;39.00;;;;;;5032535;28;20048;-66
2021/08/13 11:55:53;;;;;;;22.70;14.98;;;37.60;38.50;;;;;;5032496;28;20048;-66
2021/08/13 11:59:04;;;;;;;32.00;24.90;;;37.60;40.90;;;;;;5033196;28;20433;-66
2021/08/13 12:02:10;;;;;;;21.33;15.70;;;37.60;42.20;;;;;;5032538;28;20064;-66
2021/08/13 12:05:14;;;;;;;17.77;15.70;;;37.60;40.40;;;;;;5033451;28;20056;-66
2021/08/13 12:08:18;;;;;;;24.35;19.60;;;37.60;41.40;;;;;;5032245;28;20049;-66
2021/08/13 12:11:27;;;;;;;23.15;14.73;;;37.60;41.70;;;;;;5032448;28;20095;-66
2021/08/13 12:14:38;;;;;;;19.73;12.07;;;37.60;43.00;;;;;;5032154;28;20060;-68
2021/08/13 12:17:52;;;;;;;15.35;11.95;;;37.60;44.00;;;;;;5032252;28;20536;-68
2021/08/13 12:20:56;;;;;;;12.38;8.88;;;37.60;43.20;;;;;;5031948;28;20061;-68
2021/08/13 12:24:01;;;;;;;18.75;8.35;;;37.50;43.30;;;;;;5031904;28;20056;-68
2021/08/13 12:27:08;;;;;;;15.50;8.63;;;37.50;43.70;;;;;;5032017;28;20048;-68
2021/08/13 12:30:17;;;;;;;9.80;7.88;;;37.50;42.40;;;;;;5032934;28;20044;-67
2021/08/13 12:33:22;;;;;;;15.10;7.80;;;37.40;42.50;;;;;;5031766;28;20042;-68
2021/08/13 12:36:26;;;;;;;13.88;8.05;;;37.30;42.90;;;;;;5032863;28;20048;-68
2021/08/13 12:39:32;;;;;;;11.20;7.85;;;37.30;43.00;;;;;;5031851;28;20044;-68
2021/08/13 12:42:39;;;;;;;13.27;8.27;;;37.20;42.50;;;;;;5031940;28;20053;-68
2021/08/13 12:45:45;;;;;;;16.40;8.88;;;37.20;42.50;;;;;;5030535;28;20550;-68
2021/08/13 12:48:49;;;;;;;40.22;11.55;;;37.10;42.80;;;;;;5031900;28;20043;-68
2021/08/13 12:52:17;;;;;;;13.45;7.80;;;37.10;42.80;;;;;;5032369;28;20048;-68
2021/08/13 12:55:21;;;;;;;89.13;14.85;;;37.10;42.70;;;;;;5031333;28;20401;-68
2021/08/13 12:58:33;;;;;;;18.63;8.68;;;37.10;42.80;;;;;;5031768;28;20477;-68
2021/08/13 13:01:40;;;;;;;14.82;8.48;;;37.10;43.20;;;;;;5031370;28;20060;-68
2021/08/13 13:04:44;;;;;;;13.75;8.60;;;37.10;43.70;;;;;;5031695;28;20048;-68
2021/08/13 13:07:58;;;;;;;16.77;8.77;;;37.10;43.50;;;;;;5031311;28;20056;-68
2021/08/13 13:11:02;;;;;;;13.68;8.65;;;37.10;43.60;;;;;;5031441;28;20045;-68
2021/08/13 13:14:06;;;;;;;11.32;8.45;;;37.00;44.00;;;;;;5031972;28;20066;-68
2021/08/13 13:17:13;;;;;;;12.60;8.10;;;37.00;44.90;;;;;;5031365;28;20413;-68
2021/08/13 13:20:24;;;;;;;12.70;8.20;;;37.00;46.10;;;;;;5031266;28;20056;-68
2021/08/13 13:23:35;;;;;;;29.88;9.10;;;36.90;46.90;;;;;;5030878;28;20397;-68
2021/08/13 13:27:00;;;;;;;19.40;8.68;;;36.80;45.40;;;;;;5031751;28;20040;-68
2021/08/13 13:30:44;;;;;;;17.52;8.32;;;36.80;45.00;;;;;;5031912;28;20048;-68
2021/08/13 13:34:01;;;;;;;18.15;9.70;;;36.80;45.40;;;;;;5031069;28;20047;-68
2021/08/13 13:37:50;;;;;;;16.10;8.77;;;36.70;45.70;;;;;;5049169;28;20044;-68
2021/08/13 13:40:56;;;;;;;21.25;9.40;;;36.70;44.90;;;;;;5048423;28;20121;-68
2021/08/13 13:44:00;;;;;;;42.47;9.68;;;36.70;45.50;;;;;;5030690;28;20068;-68
2021/08/13 13:47:05;;;;;;;24.50;9.32;;;36.60;46.00;;;;;;5030823;28;20108;-68
2021/08/13 13:50:10;;;;;;;19.45;9.07;;;36.60;46.50;;;;;;5030786;28;20045;-68
2021/08/13 13:53:16;;;;;;;25.85;9.25;;;36.60;47.00;;;;;;5030678;28;20048;-68
2021/08/13 13:56:20;;;;;;;18.48;9.18;;;36.60;47.50;;;;;;5030303;28;20056;-68
2021/08/13 13:59:25;;;;;;;15.48;9.35;;;36.50;47.60;;;;;;5030703;28;20045;-68
2021/08/13 14:02:29;;;;;;;16.58;9.13;;;36.40;47.80;;;;;;5030016;28;20052;-68
2021/08/13 14:05:33;;;;;;;19.67;9.75;;;36.40;48.20;;;;;;5031159;28;20040;-68
2021/08/13 14:08:37;;;;;;;13.93;9.23;;;36.40;48.60;;;;;;5030347;28;20504;-68
2021/08/13 14:11:42;;;;;;;15.02;8.90;;;36.30;48.50;;;;;;5030243;28;20401;-68
2021/08/13 14:14:47;;;;;;;11.98;8.50;;;36.30;49.00;;;;;;5030339;28;20064;-68
2021/08/13 14:17:51;;;;;;;12.52;8.88;;;36.20;49.30;;;;;;5031044;28;20056;-68
2021/08/13 14:20:56;;;;;;;19.38;8.18;;;36.20;49.30;;;;;;5029861;28;20401;-68
2021/08/13 14:24:00;;;;;;;18.75;9.07;;;36.30;49.50;;;;;;5029803;28;20409;-68
2021/08/13 14:27:05;;;;;;;15.80;9.07;;;36.30;49.70;;;;;;5029870;28;20045;-68
2021/08/13 14:30:11;;;;;;;14.88;8.00;;;36.30;50.00;;;;;;5030271;28;20060;-68
2021/08/13 14:33:15;;;;;;;16.25;8.50;;;36.20;50.30;;;;;;5030069;28;20048;-68
2021/08/13 14:36:21;;;;;;;10.57;8.32;;;36.20;50.60;;;;;;5030145;28;20492;-68
2021/08/13 14:39:25;;;;;;;10.02;7.25;;;36.20;50.60;;;;;;5030313;28;20418;-68
2021/08/13 14:42:30;;;;;;;16.10;8.30;;;36.20;50.50;;;;;;5029630;28;20413;-68
2021/08/13 14:45:35;;;;;;;17.90;7.88;;;36.20;50.70;;;;;;5030290;28;20040;-68
2021/08/13 14:48:39;;;;;;;17.38;7.97;;;36.20;50.70;;;;;;5018596;28;20048;-68
2021/08/13 14:51:43;;;;;;;13.70;8.00;;;36.20;50.00;;;;;;5029834;28;20053;-68
2021/08/13 14:54:47;;;;;;;11.38;7.18;;;36.10;49.80;;;;;;5029881;28;20036;-68
2021/08/13 14:57:51;;;;;;;15.30;7.80;;;36.10;49.70;;;;;;5030769;28;20512;-68
2021/08/13 15:00:55;;;;;;;18.40;7.32;;;36.10;47.40;;;;;;5030389;28;20040;-68
2021/08/13 15:03:59;;;;;;;12.82;7.70;;;36.10;45.70;;;;;;5029767;28;20049;-68
2021/08/13 15:07:04;;;;;;;13.57;7.85;;;36.10;45.50;;;;;;5029377;28;20045;-68
2021/08/13 15:10:09;;;;;;;20.73;12.15;;;36.10;45.40;;;;;;5033432;28;20044;-68
2021/08/13 15:13:13;;;;;;;22.40;14.35;;;36.10;45.10;;;;;;5033097;28;20472;-68
2021/08/13 15:16:18;;;;;;;25.30;16.98;;;36.10;45.30;;;;;;5033495;28;20048;-68
2021/08/13 15:19:25;;;;;;;22.65;15.23;;;36.00;45.20;;;;;;5033195;28;20045;-68
2021/08/13 15:22:29;;;;;;;28.70;14.48;;;36.00;45.00;;;;;;5032736;28;20048;-68
2021/08/13 15:25:33;;;;;;;24.10;13.55;;;35.90;44.90;;;;;;5034110;28;20036;-68
2021/08/13 15:28:37;;;;;;;28.35;13.20;;;35.90;44.90;;;;;;5034069;28;20052;-68
2021/08/13 15:31:42;;;;;;;28.83;14.27;;;35.80;44.80;;;;;;5033700;28;20040;-68
2021/08/13 15:34:47;;;;;;;22.38;13.73;;;35.70;44.70;;;;;;5033819;28;20405;-67
2021/08/13 15:37:51;;;;;;;25.85;14.30;;;35.70;45.00;;;;;;5033503;28;20044;-68
2021/08/13 15:40:55;;;;;;;23.55;13.57;;;35.70;44.70;;;;;;5032932;28;20052;-67
2021/08/13 15:43:59;;;;;;;21.70;13.13;;;35.60;44.80;;;;;;5033463;28;20051;-67
2021/08/13 15:47:04;;;;;;;31.05;12.68;;;35.60;45.10;;;;;;5033537;28;20412;-67
2021/08/13 15:50:08;;;;;;;15.05;10.93;;;35.50;45.40;;;;;;5032620;28;20048;-67
2021/08/13 15:53:13;;;;;;;15.82;9.85;;;35.50;45.80;;;;;;5033385;28;20045;-68
2021/08/13 15:56:17;;;;;;;15.55;10.68;;;35.50;46.50;;;;;;5033224;28;20144;-67